sensor_id;sensor_type;location;lat;lon;timestamp;P1;durP1;ratioP1;P2;durP2;ratioP2
63801;SDS011;49949;43.060;25.624;2022-07-29T00:02:09;12.85;;;9.90;;
63801;SDS011;49949;43.060;25.624;2022-07-29T00:04:35;14.13;;;10.43;;
63801;SDS011;49949;43.060;25.624;2022-07-29T00:07:01;14.35;;;10.88;;
63801;SDS011;49949;43.060;25.624;2022-07-29T00:09:27;16.98;;;12.23;;
63801;SDS011;49949;43.060;25.624;2022-07-29T00:11:53;16.38;;;11.85;;
63801;SDS011;49949;43.060;25.624;2022-07-29T00:14:21;15.73;;;11.75;;
63801;SDS011;49949;43.060;25.624;2022-07-29T00:16:47;12.77;;;10.35;;
63801;SDS011;49949;43.060;25.624;2022-07-29T00:19:13;20.90;;;11.48;;
63801;SDS011;49949;43.060;25.624;2022-07-29T00:21:38;15.63;;;11.15;;
63801;SDS011;49949;43.060;25.624;2022-07-29T00:24:04;13.57;;;10.45;;
63801;SDS011;49949;43.060;25.624;2022-07-29T00:26:30;19.98;;;10.65;;
63801;SDS011;49949;43.060;25.624;2022-07-29T00:29:00;12.50;;;9.55;;
63801;SDS011;49949;43.060;25.624;2022-07-29T00:31:27;16.55;;;9.98;;
63801;SDS011;49949;43.060;25.624;2022-07-29T00:33:53;12.43;;;9.55;;
63801;SDS011;49949;43.060;25.624;2022-07-29T00:36:19;16.95;;;10.15;;
63801;SDS011;49949;43.060;25.624;2022-07-29T00:38:48;26.17;;;9.82;;
63801;SDS011;49949;43.060;25.624;2022-07-29T00:41:15;19.60;;;9.07;;
63801;SDS011;49949;43.060;25.624;2022-07-29T00:43:42;14.63;;;8.40;;
63801;SDS011;49949;43.060;25.624;2022-07-29T00:46:08;9.20;;;7.97;;
63801;SDS011;49949;43.060;25.624;2022-07-29T00:48:34;9.98;;;8.10;;
63801;SDS011;49949;43.060;25.624;2022-07-29T00:51:01;17.15;;;7.78;;
63801;SDS011;49949;43.060;25.624;2022-07-29T00:53:28;10.70;;;7.65;;
63801;SDS011;49949;43.060;25.624;2022-07-29T00:55:56;11.85;;;8.95;;
63801;SDS011;49949;43.060;25.624;2022-07-29T00:58:22;12.93;;;8.57;;
63801;SDS011;49949;43.060;25.624;2022-07-29T01:00:49;14.95;;;9.60;;
63801;SDS011;49949;43.060;25.624;2022-07-29T01:03:15;11.52;;;8.93;;
63801;SDS011;49949;43.060;25.624;2022-07-29T01:05:41;10.05;;;7.88;;
63801;SDS011;49949;43.060;25.624;2022-07-29T01:08:10;9.40;;;8.38;;
63801;SDS011;49949;43.060;25.624;2022-07-29T01:10:37;11.95;;;8.50;;
63801;SDS011;49949;43.060;25.624;2022-07-29T01:13:04;14.77;;;9.70;;
63801;SDS011;49949;43.060;25.624;2022-07-29T01:15:32;11.20;;;9.25;;
63801;SDS011;49949;43.060;25.624;2022-07-29T01:18:11;12.23;;;8.60;;
63801;SDS011;49949;43.060;25.624;2022-07-29T01:23:51;9.70;;;7.50;;
63801;SDS011;49949;43.060;25.624;2022-07-29T01:31:45;10.55;;;8.50;;
63801;SDS011;49949;43.060;25.624;2022-07-29T01:34:23;12.25;;;8.68;;
63801;SDS011;49949;43.060;25.624;2022-07-29T01:37:08;12.90;;;8.82;;
63801;SDS011;49949;43.060;25.624;2022-07-29T01:39:38;10.23;;;9.02;;
63801;SDS011;49949;43.060;25.624;2022-07-29T01:45:17;16.75;;;11.55;;
63801;SDS011;49949;43.060;25.624;2022-07-29T01:48:02;20.35;;;11.00;;
63801;SDS011;49949;43.060;25.624;2022-07-29T01:50:40;20.15;;;12.27;;
63801;SDS011;49949;43.060;25.624;2022-07-29T01:53:25;17.73;;;12.50;;
63801;SDS011;49949;43.060;25.624;2022-07-29T01:56:02;17.55;;;10.95;;
63801;SDS011;49949;43.060;25.624;2022-07-29T01:58:29;14.82;;;9.13;;
63801;SDS011;49949;43.060;25.624;2022-07-29T02:00:58;15.20;;;9.13;;
63801;SDS011;49949;43.060;25.624;2022-07-29T02:03:25;13.07;;;9.70;;
63801;SDS011;49949;43.060;25.624;2022-07-29T02:05:52;15.40;;;9.75;;
63801;SDS011;49949;43.060;25.624;2022-07-29T02:08:21;14.55;;;8.85;;
63801;SDS011;49949;43.060;25.624;2022-07-29T02:10:48;10.57;;;7.70;;
63801;SDS011;49949;43.060;25.624;2022-07-29T02:13:15;11.30;;;9.00;;
63801;SDS011;49949;43.060;25.624;2022-07-29T02:15:43;10.95;;;8.60;;
63801;SDS011;49949;43.060;25.624;2022-07-29T02:18:12;9.30;;;7.85;;
63801;SDS011;49949;43.060;25.624;2022-07-29T02:20:46;13.80;;;9.57;;
63801;SDS011;49949;43.060;25.624;2022-07-29T02:23:14;11.80;;;9.10;;
63801;SDS011;49949;43.060;25.624;2022-07-29T02:25:44;11.55;;;8.45;;
63801;SDS011;49949;43.060;25.624;2022-07-29T02:28:11;14.60;;;8.50;;
63801;SDS011;49949;43.060;25.624;2022-07-29T02:30:40;10.43;;;8.63;;
63801;SDS011;49949;43.060;25.624;2022-07-29T02:33:07;14.02;;;8.32;;
63801;SDS011;49949;43.060;25.624;2022-07-29T02:35:35;17.73;;;8.82;;
63801;SDS011;49949;43.060;25.624;2022-07-29T02:38:02;10.50;;;8.23;;
63801;SDS011;49949;43.060;25.624;2022-07-29T02:40:47;10.68;;;8.05;;
63801;SDS011;49949;43.060;25.624;2022-07-29T02:43:15;16.85;;;8.85;;
63801;SDS011;49949;43.060;25.624;2022-07-29T02:45:44;13.20;;;8.55;;
63801;SDS011;49949;43.060;25.624;2022-07-29T02:48:13;11.32;;;8.50;;
63801;SDS011;49949;43.060;25.624;2022-07-29T02:50:47;11.98;;;9.20;;
63801;SDS011;49949;43.060;25.624;2022-07-29T02:53:20;11.18;;;8.75;;
63801;SDS011;49949;43.060;25.624;2022-07-29T02:55:56;9.73;;;7.50;;
63801;SDS011;49949;43.060;25.624;2022-07-29T03:01:03;17.15;;;8.20;;
63801;SDS011;49949;43.060;25.624;2022-07-29T03:03:36;12.55;;;8.38;;
63801;SDS011;49949;43.060;25.624;2022-07-29T03:06:03;16.60;;;8.85;;
63801;SDS011;49949;43.060;25.624;2022-07-29T03:08:30;18.95;;;9.05;;
63801;SDS011;49949;43.060;25.624;2022-07-29T03:10:57;15.65;;;8.95;;
63801;SDS011;49949;43.060;25.624;2022-07-29T03:13:24;15.73;;;8.63;;
63801;SDS011;49949;43.060;25.624;2022-07-29T03:15:52;11.75;;;8.18;;
63801;SDS011;49949;43.060;25.624;2022-07-29T03:18:18;7.15;;;6.35;;
63801;SDS011;49949;43.060;25.624;2022-07-29T03:20:44;9.73;;;6.63;;
63801;SDS011;49949;43.060;25.624;2022-07-29T03:23:10;12.50;;;5.93;;
63801;SDS011;49949;43.060;25.624;2022-07-29T03:25:36;11.02;;;5.93;;
63801;SDS011;49949;43.060;25.624;2022-07-29T03:28:01;6.78;;;5.80;;
63801;SDS011;49949;43.060;25.624;2022-07-29T03:30:27;14.85;;;8.30;;
63801;SDS011;49949;43.060;25.624;2022-07-29T03:32:55;15.25;;;7.53;;
63801;SDS011;49949;43.060;25.624;2022-07-29T03:35:21;10.27;;;7.75;;
63801;SDS011;49949;43.060;25.624;2022-07-29T03:37:47;13.40;;;8.20;;
63801;SDS011;49949;43.060;25.624;2022-07-29T03:40:17;23.40;;;8.82;;
63801;SDS011;49949;43.060;25.624;2022-07-29T03:42:47;13.27;;;10.02;;
63801;SDS011;49949;43.060;25.624;2022-07-29T03:45:16;20.33;;;10.18;;
63801;SDS011;49949;43.060;25.624;2022-07-29T03:47:55;22.20;;;8.93;;
63801;SDS011;49949;43.060;25.624;2022-07-29T03:50:24;21.85;;;10.63;;
63801;SDS011;49949;43.060;25.624;2022-07-29T03:52:50;12.32;;;7.57;;
63801;SDS011;49949;43.060;25.624;2022-07-29T03:55:16;13.30;;;8.52;;
63801;SDS011;49949;43.060;25.624;2022-07-29T03:57:43;23.27;;;8.20;;
63801;SDS011;49949;43.060;25.624;2022-07-29T04:00:10;15.73;;;6.93;;
63801;SDS011;49949;43.060;25.624;2022-07-29T04:02:37;13.90;;;6.60;;
63801;SDS011;49949;43.060;25.624;2022-07-29T04:05:04;17.02;;;8.27;;
63801;SDS011;49949;43.060;25.624;2022-07-29T04:07:30;16.13;;;8.85;;
63801;SDS011;49949;43.060;25.624;2022-07-29T04:09:56;19.77;;;9.90;;
63801;SDS011;49949;43.060;25.624;2022-07-29T04:12:21;17.88;;;9.73;;
63801;SDS011;49949;43.060;25.624;2022-07-29T04:14:47;12.88;;;10.77;;
63801;SDS011;49949;43.060;25.624;2022-07-29T04:17:13;24.15;;;10.85;;
63801;SDS011;49949;43.060;25.624;2022-07-29T04:19:39;16.98;;;10.95;;
63801;SDS011;49949;43.060;25.624;2022-07-29T04:22:05;17.48;;;10.65;;
63801;SDS011;49949;43.060;25.624;2022-07-29T04:24:30;15.05;;;9.30;;
63801;SDS011;49949;43.060;25.624;2022-07-29T04:26:56;16.63;;;10.20;;
63801;SDS011;49949;43.060;25.624;2022-07-29T04:29:22;20.27;;;11.05;;
63801;SDS011;49949;43.060;25.624;2022-07-29T04:31:47;15.50;;;9.68;;
63801;SDS011;49949;43.060;25.624;2022-07-29T04:34:13;13.25;;;7.70;;
63801;SDS011;49949;43.060;25.624;2022-07-29T04:36:39;15.00;;;7.97;;
63801;SDS011;49949;43.060;25.624;2022-07-29T04:39:05;24.98;;;9.23;;
63801;SDS011;49949;43.060;25.624;2022-07-29T04:41:31;17.58;;;9.98;;
63801;SDS011;49949;43.060;25.624;2022-07-29T04:43:57;30.20;;;12.00;;
63801;SDS011;49949;43.060;25.624;2022-07-29T04:46:25;16.85;;;8.57;;
63801;SDS011;49949;43.060;25.624;2022-07-29T04:48:51;19.35;;;8.18;;
63801;SDS011;49949;43.060;25.624;2022-07-29T04:51:16;11.57;;;6.75;;
63801;SDS011;49949;43.060;25.624;2022-07-29T04:53:42;22.05;;;6.88;;
63801;SDS011;49949;43.060;25.624;2022-07-29T04:56:08;25.15;;;6.30;;
63801;SDS011;49949;43.060;25.624;2022-07-29T04:58:34;20.42;;;7.85;;
63801;SDS011;49949;43.060;25.624;2022-07-29T05:01:00;14.55;;;7.75;;
63801;SDS011;49949;43.060;25.624;2022-07-29T05:03:26;20.08;;;8.10;;
63801;SDS011;49949;43.060;25.624;2022-07-29T05:05:52;19.77;;;7.85;;
63801;SDS011;49949;43.060;25.624;2022-07-29T05:08:18;18.70;;;7.45;;
63801;SDS011;49949;43.060;25.624;2022-07-29T05:10:43;11.52;;;8.27;;
63801;SDS011;49949;43.060;25.624;2022-07-29T05:13:09;15.98;;;9.02;;
63801;SDS011;49949;43.060;25.624;2022-07-29T05:15:35;18.33;;;10.45;;
63801;SDS011;49949;43.060;25.624;2022-07-29T05:18:02;24.25;;;10.52;;
63801;SDS011;49949;43.060;25.624;2022-07-29T05:20:29;47.72;;;15.00;;
63801;SDS011;49949;43.060;25.624;2022-07-29T05:22:59;32.88;;;14.82;;
63801;SDS011;49949;43.060;25.624;2022-07-29T05:25:26;28.83;;;15.70;;
63801;SDS011;49949;43.060;25.624;2022-07-29T05:27:52;39.03;;;17.15;;
63801;SDS011;49949;43.060;25.624;2022-07-29T05:30:19;51.08;;;13.20;;
63801;SDS011;49949;43.060;25.624;2022-07-29T05:32:45;26.77;;;12.70;;
63801;SDS011;49949;43.060;25.624;2022-07-29T05:35:12;29.83;;;12.18;;
63801;SDS011;49949;43.060;25.624;2022-07-29T05:37:38;25.38;;;12.57;;
63801;SDS011;49949;43.060;25.624;2022-07-29T05:40:04;24.85;;;13.52;;
63801;SDS011;49949;43.060;25.624;2022-07-29T05:42:31;29.80;;;15.55;;
63801;SDS011;49949;43.060;25.624;2022-07-29T05:44:57;17.63;;;10.52;;
63801;SDS011;49949;43.060;25.624;2022-07-29T05:47:23;15.23;;;6.95;;
63801;SDS011;49949;43.060;25.624;2022-07-29T05:49:49;12.68;;;6.63;;
63801;SDS011;49949;43.060;25.624;2022-07-29T05:52:15;50.60;;;7.85;;
63801;SDS011;49949;43.060;25.624;2022-07-29T05:54:42;16.73;;;6.65;;
63801;SDS011;49949;43.060;25.624;2022-07-29T05:57:08;14.18;;;6.63;;
63801;SDS011;49949;43.060;25.624;2022-07-29T05:59:40;7.70;;;6.22;;
63801;SDS011;49949;43.060;25.624;2022-07-29T06:02:05;16.20;;;6.80;;
63801;SDS011;49949;43.060;25.624;2022-07-29T06:04:31;12.13;;;7.40;;
63801;SDS011;49949;43.060;25.624;2022-07-29T06:06:58;10.93;;;7.22;;
63801;SDS011;49949;43.060;25.624;2022-07-29T06:09:24;10.00;;;6.90;;
63801;SDS011;49949;43.060;25.624;2022-07-29T06:11:51;14.98;;;7.35;;
63801;SDS011;49949;43.060;25.624;2022-07-29T06:14:17;12.73;;;7.82;;
63801;SDS011;49949;43.060;25.624;2022-07-29T06:16:43;32.78;;;10.05;;
63801;SDS011;49949;43.060;25.624;2022-07-29T06:19:09;39.00;;;12.43;;
63801;SDS011;49949;43.060;25.624;2022-07-29T06:21:35;56.67;;;13.85;;
63801;SDS011;49949;43.060;25.624;2022-07-29T06:24:01;39.83;;;14.02;;
63801;SDS011;49949;43.060;25.624;2022-07-29T06:26:26;30.95;;;16.25;;
63801;SDS011;49949;43.060;25.624;2022-07-29T06:28:52;29.98;;;16.70;;
63801;SDS011;49949;43.060;25.624;2022-07-29T06:31:18;30.70;;;15.30;;
63801;SDS011;49949;43.060;25.624;2022-07-29T06:33:44;46.33;;;17.00;;
63801;SDS011;49949;43.060;25.624;2022-07-29T06:36:09;43.72;;;17.40;;
63801;SDS011;49949;43.060;25.624;2022-07-29T06:38:35;51.95;;;17.50;;
63801;SDS011;49949;43.060;25.624;2022-07-29T06:41:03;35.72;;;16.10;;
63801;SDS011;49949;43.060;25.624;2022-07-29T06:46:04;21.85;;;11.45;;
63801;SDS011;49949;43.060;25.624;2022-07-29T06:48:32;19.50;;;9.88;;
63801;SDS011;49949;43.060;25.624;2022-07-29T06:50:59;15.80;;;8.77;;
63801;SDS011;49949;43.060;25.624;2022-07-29T06:53:25;47.90;;;10.82;;
63801;SDS011;49949;43.060;25.624;2022-07-29T06:55:51;15.65;;;8.45;;
63801;SDS011;49949;43.060;25.624;2022-07-29T06:58:17;13.35;;;6.32;;
63801;SDS011;49949;43.060;25.624;2022-07-29T07:00:45;26.45;;;6.20;;
63801;SDS011;49949;43.060;25.624;2022-07-29T07:03:12;12.32;;;5.90;;
63801;SDS011;49949;43.060;25.624;2022-07-29T07:05:38;15.82;;;4.75;;
63801;SDS011;49949;43.060;25.624;2022-07-29T07:08:04;12.77;;;4.97;;
63801;SDS011;49949;43.060;25.624;2022-07-29T07:10:30;9.98;;;4.95;;
63801;SDS011;49949;43.060;25.624;2022-07-29T07:12:57;7.65;;;4.20;;
63801;SDS011;49949;43.060;25.624;2022-07-29T07:15:22;5.53;;;3.60;;
63801;SDS011;49949;43.060;25.624;2022-07-29T07:17:48;6.55;;;4.28;;
63801;SDS011;49949;43.060;25.624;2022-07-29T07:20:14;8.18;;;3.85;;
63801;SDS011;49949;43.060;25.624;2022-07-29T07:22:44;21.13;;;4.30;;
63801;SDS011;49949;43.060;25.624;2022-07-29T07:25:10;16.65;;;3.60;;
63801;SDS011;49949;43.060;25.624;2022-07-29T07:27:36;6.85;;;2.97;;
63801;SDS011;49949;43.060;25.624;2022-07-29T07:30:04;16.63;;;3.30;;
63801;SDS011;49949;43.060;25.624;2022-07-29T07:32:31;35.95;;;4.07;;
63801;SDS011;49949;43.060;25.624;2022-07-29T07:35:00;3.90;;;2.90;;
63801;SDS011;49949;43.060;25.624;2022-07-29T07:37:26;4.47;;;2.78;;
63801;SDS011;49949;43.060;25.624;2022-07-29T07:39:52;12.10;;;2.97;;
63801;SDS011;49949;43.060;25.624;2022-07-29T07:42:18;4.97;;;2.30;;
63801;SDS011;49949;43.060;25.624;2022-07-29T07:44:44;10.82;;;2.00;;
63801;SDS011;49949;43.060;25.624;2022-07-29T07:47:11;5.30;;;2.55;;
63801;SDS011;49949;43.060;25.624;2022-07-29T07:49:37;2.85;;;2.10;;
63801;SDS011;49949;43.060;25.624;2022-07-29T07:52:03;2.67;;;1.95;;
63801;SDS011;49949;43.060;25.624;2022-07-29T07:54:30;2.13;;;1.92;;
63801;SDS011;49949;43.060;25.624;2022-07-29T07:56:56;7.90;;;1.83;;
63801;SDS011;49949;43.060;25.624;2022-07-29T07:59:22;1.98;;;1.88;;
63801;SDS011;49949;43.060;25.624;2022-07-29T08:01:48;6.15;;;1.80;;
63801;SDS011;49949;43.060;25.624;2022-07-29T08:04:14;4.07;;;1.85;;
63801;SDS011;49949;43.060;25.624;2022-07-29T08:06:39;1.75;;;1.65;;
63801;SDS011;49949;43.060;25.624;2022-07-29T08:09:05;2.33;;;1.80;;
63801;SDS011;49949;43.060;25.624;2022-07-29T08:11:31;7.28;;;1.90;;
63801;SDS011;49949;43.060;25.624;2022-07-29T08:13:57;4.35;;;1.83;;
63801;SDS011;49949;43.060;25.624;2022-07-29T08:16:23;11.07;;;2.15;;
63801;SDS011;49949;43.060;25.624;2022-07-29T08:18:50;4.45;;;1.90;;
63801;SDS011;49949;43.060;25.624;2022-07-29T08:21:17;4.82;;;2.10;;
63801;SDS011;49949;43.060;25.624;2022-07-29T08:23:43;3.95;;;2.00;;
63801;SDS011;49949;43.060;25.624;2022-07-29T08:26:18;2.88;;;1.70;;
63801;SDS011;49949;43.060;25.624;2022-07-29T08:28:45;4.80;;;2.30;;
63801;SDS011;49949;43.060;25.624;2022-07-29T08:31:14;2.70;;;1.65;;
63801;SDS011;49949;43.060;25.624;2022-07-29T08:33:40;2.40;;;2.20;;
63801;SDS011;49949;43.060;25.624;2022-07-29T08:36:07;5.10;;;1.95;;
63801;SDS011;49949;43.060;25.624;2022-07-29T08:38:33;2.55;;;2.35;;
63801;SDS011;49949;43.060;25.624;2022-07-29T08:41:02;7.25;;;2.10;;
63801;SDS011;49949;43.060;25.624;2022-07-29T08:43:28;4.38;;;2.67;;
63801;SDS011;49949;43.060;25.624;2022-07-29T08:45:54;50.83;;;5.32;;
63801;SDS011;49949;43.060;25.624;2022-07-29T08:48:21;8.10;;;2.00;;
63801;SDS011;49949;43.060;25.624;2022-07-29T08:50:49;2.97;;;2.10;;
63801;SDS011;49949;43.060;25.624;2022-07-29T08:53:19;2.10;;;1.90;;
63801;SDS011;49949;43.060;25.624;2022-07-29T08:55:48;3.63;;;1.98;;
63801;SDS011;49949;43.060;25.624;2022-07-29T08:58:15;6.45;;;2.10;;
63801;SDS011;49949;43.060;25.624;2022-07-29T09:00:43;2.72;;;1.77;;
63801;SDS011;49949;43.060;25.624;2022-07-29T09:03:18;47.85;;;3.38;;
63801;SDS011;49949;43.060;25.624;2022-07-29T09:05:45;5.25;;;2.58;;
63801;SDS011;49949;43.060;25.624;2022-07-29T09:08:12;2.95;;;1.67;;
63801;SDS011;49949;43.060;25.624;2022-07-29T09:10:39;2.10;;;1.60;;
63801;SDS011;49949;43.060;25.624;2022-07-29T09:13:05;2.17;;;1.60;;
63801;SDS011;49949;43.060;25.624;2022-07-29T09:15:31;2.17;;;1.85;;
63801;SDS011;49949;43.060;25.624;2022-07-29T09:17:57;2.80;;;1.90;;
63801;SDS011;49949;43.060;25.624;2022-07-29T09:20:25;3.28;;;1.73;;
63801;SDS011;49949;43.060;25.624;2022-07-29T09:23:11;5.65;;;1.75;;
63801;SDS011;49949;43.060;25.624;2022-07-29T09:25:38;4.72;;;3.72;;
63801;SDS011;49949;43.060;25.624;2022-07-29T09:28:15;4.35;;;2.30;;
63801;SDS011;49949;43.060;25.624;2022-07-29T09:30:54;3.55;;;2.15;;
63801;SDS011;49949;43.060;25.624;2022-07-29T09:33:22;3.17;;;1.90;;
63801;SDS011;49949;43.060;25.624;2022-07-29T09:38:30;7.70;;;2.00;;
63801;SDS011;49949;43.060;25.624;2022-07-29T09:40:57;4.60;;;1.90;;
63801;SDS011;49949;43.060;25.624;2022-07-29T09:43:24;6.25;;;2.58;;
63801;SDS011;49949;43.060;25.624;2022-07-29T09:45:50;22.27;;;2.30;;
63801;SDS011;49949;43.060;25.624;2022-07-29T09:48:17;5.38;;;2.20;;
63801;SDS011;49949;43.060;25.624;2022-07-29T09:50:44;7.47;;;2.05;;
63801;SDS011;49949;43.060;25.624;2022-07-29T09:53:12;5.68;;;1.88;;
63801;SDS011;49949;43.060;25.624;2022-07-29T09:55:54;2.00;;;1.90;;
63801;SDS011;49949;43.060;25.624;2022-07-29T09:58:20;2.60;;;2.10;;
63801;SDS011;49949;43.060;25.624;2022-07-29T10:00:48;3.40;;;3.10;;
63801;SDS011;49949;43.060;25.624;2022-07-29T10:03:15;3.47;;;2.05;;
63801;SDS011;49949;43.060;25.624;2022-07-29T10:05:41;5.22;;;2.08;;
63801;SDS011;49949;43.060;25.624;2022-07-29T10:08:08;138.30;;;8.52;;
63801;SDS011;49949;43.060;25.624;2022-07-29T10:10:36;4.72;;;2.20;;
63801;SDS011;49949;43.060;25.624;2022-07-29T10:13:05;6.32;;;2.15;;
63801;SDS011;49949;43.060;25.624;2022-07-29T10:15:34;6.43;;;2.70;;
63801;SDS011;49949;43.060;25.624;2022-07-29T10:18:06;2.45;;;1.80;;
63801;SDS011;49949;43.060;25.624;2022-07-29T10:20:33;6.70;;;1.77;;
63801;SDS011;49949;43.060;25.624;2022-07-29T10:22:59;8.32;;;2.00;;
63801;SDS011;49949;43.060;25.624;2022-07-29T10:25:25;12.30;;;2.50;;
63801;SDS011;49949;43.060;25.624;2022-07-29T10:27:52;17.00;;;3.22;;
63801;SDS011;49949;43.060;25.624;2022-07-29T10:30:22;6.07;;;2.10;;
63801;SDS011;49949;43.060;25.624;2022-07-29T10:32:51;2.00;;;1.73;;
63801;SDS011;49949;43.060;25.624;2022-07-29T10:35:44;3.05;;;1.90;;
63801;SDS011;49949;43.060;25.624;2022-07-29T10:44:01;18.30;;;2.65;;
63801;SDS011;49949;43.060;25.624;2022-07-29T10:46:48;3.55;;;2.25;;
63801;SDS011;49949;43.060;25.624;2022-07-29T10:49:19;2.15;;;1.90;;
63801;SDS011;49949;43.060;25.624;2022-07-29T11:07:33;2.78;;;1.90;;
63801;SDS011;49949;43.060;25.624;2022-07-29T11:15:21;2.30;;;1.88;;
63801;SDS011;49949;43.060;25.624;2022-07-29T11:34:21;84.77;;;6.30;;
63801;SDS011;49949;43.060;25.624;2022-07-29T11:45:03;3.53;;;2.13;;
63801;SDS011;49949;43.060;25.624;2022-07-29T11:47:31;6.97;;;2.45;;
63801;SDS011;49949;43.060;25.624;2022-07-29T11:49:59;3.08;;;2.03;;
63801;SDS011;49949;43.060;25.624;2022-07-29T11:52:46;2.83;;;1.90;;
63801;SDS011;49949;43.060;25.624;2022-07-29T11:55:16;4.28;;;2.05;;
63801;SDS011;49949;43.060;25.624;2022-07-29T11:57:56;9.25;;;2.47;;
63801;SDS011;49949;43.060;25.624;2022-07-29T12:00:32;32.33;;;2.80;;
63801;SDS011;49949;43.060;25.624;2022-07-29T12:03:09;15.32;;;2.65;;
63801;SDS011;49949;43.060;25.624;2022-07-29T12:10:33;7.95;;;2.20;;
63801;SDS011;49949;43.060;25.624;2022-07-29T12:12:59;7.65;;;2.22;;
63801;SDS011;49949;43.060;25.624;2022-07-29T12:15:25;2.80;;;2.20;;
63801;SDS011;49949;43.060;25.624;2022-07-29T12:17:51;2.20;;;1.98;;
63801;SDS011;49949;43.060;25.624;2022-07-29T12:20:27;2.33;;;2.13;;
63801;SDS011;49949;43.060;25.624;2022-07-29T12:22:55;5.13;;;2.22;;
63801;SDS011;49949;43.060;25.624;2022-07-29T12:25:22;3.45;;;2.25;;
63801;SDS011;49949;43.060;25.624;2022-07-29T12:27:58;5.70;;;2.20;;
63801;SDS011;49949;43.060;25.624;2022-07-29T12:30:34;7.00;;;2.90;;
63801;SDS011;49949;43.060;25.624;2022-07-29T12:33:09;2.97;;;2.40;;
63801;SDS011;49949;43.060;25.624;2022-07-29T12:35:36;12.68;;;2.60;;
63801;SDS011;49949;43.060;25.624;2022-07-29T12:38:02;2.80;;;2.30;;
63801;SDS011;49949;43.060;25.624;2022-07-29T12:40:28;3.25;;;2.47;;
63801;SDS011;49949;43.060;25.624;2022-07-29T12:43:07;5.22;;;2.45;;
63801;SDS011;49949;43.060;25.624;2022-07-29T12:45:41;2.05;;;1.95;;
63801;SDS011;49949;43.060;25.624;2022-07-29T12:48:08;3.85;;;2.28;;
63801;SDS011;49949;43.060;25.624;2022-07-29T12:50:53;3.30;;;2.45;;
63801;SDS011;49949;43.060;25.624;2022-07-29T12:53:20;7.10;;;2.10;;
63801;SDS011;49949;43.060;25.624;2022-07-29T12:55:47;59.53;;;5.38;;
63801;SDS011;49949;43.060;25.624;2022-07-29T13:01:17;7.00;;;2.30;;
63801;SDS011;49949;43.060;25.624;2022-07-29T13:03:45;3.00;;;2.15;;
63801;SDS011;49949;43.060;25.624;2022-07-29T13:09:00;7.40;;;1.90;;
63801;SDS011;49949;43.060;25.624;2022-07-29T13:11:28;9.45;;;2.30;;
63801;SDS011;49949;43.060;25.624;2022-07-29T13:13:57;2.80;;;2.42;;
63801;SDS011;49949;43.060;25.624;2022-07-29T13:16:23;7.25;;;2.80;;
63801;SDS011;49949;43.060;25.624;2022-07-29T13:18:54;134.18;;;7.68;;
63801;SDS011;49949;43.060;25.624;2022-07-29T13:21:28;5.85;;;2.40;;
63801;SDS011;49949;43.060;25.624;2022-07-29T13:23:54;3.65;;;2.00;;
63801;SDS011;49949;43.060;25.624;2022-07-29T13:26:20;3.72;;;2.17;;
63801;SDS011;49949;43.060;25.624;2022-07-29T13:28:46;4.13;;;2.63;;
63801;SDS011;49949;43.060;25.624;2022-07-29T13:31:11;3.10;;;2.53;;
63801;SDS011;49949;43.060;25.624;2022-07-29T13:33:37;4.00;;;2.30;;
63801;SDS011;49949;43.060;25.624;2022-07-29T13:36:03;5.10;;;2.60;;
63801;SDS011;49949;43.060;25.624;2022-07-29T13:38:28;2.90;;;2.58;;
63801;SDS011;49949;43.060;25.624;2022-07-29T13:40:54;4.57;;;2.60;;
63801;SDS011;49949;43.060;25.624;2022-07-29T13:43:20;5.30;;;2.53;;
63801;SDS011;49949;43.060;25.624;2022-07-29T13:45:45;5.95;;;2.67;;
63801;SDS011;49949;43.060;25.624;2022-07-29T13:48:11;2.40;;;2.15;;
63801;SDS011;49949;43.060;25.624;2022-07-29T13:50:37;3.83;;;2.30;;
63801;SDS011;49949;43.060;25.624;2022-07-29T13:53:03;4.07;;;2.30;;
63801;SDS011;49949;43.060;25.624;2022-07-29T13:55:28;2.80;;;1.80;;
63801;SDS011;49949;43.060;25.624;2022-07-29T13:57:54;5.50;;;2.72;;
63801;SDS011;49949;43.060;25.624;2022-07-29T14:00:20;12.05;;;4.57;;
63801;SDS011;49949;43.060;25.624;2022-07-29T14:02:46;20.33;;;3.30;;
63801;SDS011;49949;43.060;25.624;2022-07-29T14:05:12;4.10;;;3.28;;
63801;SDS011;49949;43.060;25.624;2022-07-29T14:07:37;18.15;;;2.88;;
63801;SDS011;49949;43.060;25.624;2022-07-29T14:10:04;66.22;;;4.60;;
63801;SDS011;49949;43.060;25.624;2022-07-29T14:12:30;115.50;;;7.03;;
63801;SDS011;49949;43.060;25.624;2022-07-29T14:14:56;4.10;;;2.10;;
63801;SDS011;49949;43.060;25.624;2022-07-29T14:17:21;5.78;;;2.30;;
63801;SDS011;49949;43.060;25.624;2022-07-29T14:19:47;1.95;;;1.85;;
63801;SDS011;49949;43.060;25.624;2022-07-29T14:22:13;3.33;;;2.30;;
63801;SDS011;49949;43.060;25.624;2022-07-29T14:24:39;4.18;;;2.20;;
63801;SDS011;49949;43.060;25.624;2022-07-29T14:27:05;2.28;;;2.03;;
63801;SDS011;49949;43.060;25.624;2022-07-29T14:29:32;3.10;;;2.15;;
63801;SDS011;49949;43.060;25.624;2022-07-29T14:31:58;2.55;;;1.98;;
63801;SDS011;49949;43.060;25.624;2022-07-29T14:34:23;5.22;;;2.60;;
63801;SDS011;49949;43.060;25.624;2022-07-29T14:36:49;22.33;;;2.90;;
63801;SDS011;49949;43.060;25.624;2022-07-29T14:39:15;10.23;;;2.40;;
63801;SDS011;49949;43.060;25.624;2022-07-29T14:41:41;36.70;;;3.60;;
63801;SDS011;49949;43.060;25.624;2022-07-29T14:44:08;4.72;;;2.22;;
63801;SDS011;49949;43.060;25.624;2022-07-29T14:46:33;34.70;;;3.63;;
63801;SDS011;49949;43.060;25.624;2022-07-29T14:48:59;3.05;;;2.85;;
63801;SDS011;49949;43.060;25.624;2022-07-29T14:51:25;3.70;;;2.15;;
63801;SDS011;49949;43.060;25.624;2022-07-29T14:53:51;2.35;;;2.13;;
63801;SDS011;49949;43.060;25.624;2022-07-29T14:56:16;5.45;;;2.10;;
63801;SDS011;49949;43.060;25.624;2022-07-29T14:58:42;7.25;;;2.47;;
63801;SDS011;49949;43.060;25.624;2022-07-29T15:01:08;4.95;;;2.28;;
63801;SDS011;49949;43.060;25.624;2022-07-29T15:03:34;290.85;;;16.17;;
63801;SDS011;49949;43.060;25.624;2022-07-29T15:06:00;5.32;;;3.15;;
63801;SDS011;49949;43.060;25.624;2022-07-29T15:08:25;5.88;;;2.83;;
63801;SDS011;49949;43.060;25.624;2022-07-29T15:10:53;5.53;;;2.65;;
63801;SDS011;49949;43.060;25.624;2022-07-29T15:13:19;3.85;;;2.17;;
63801;SDS011;49949;43.060;25.624;2022-07-29T15:15:44;6.43;;;3.88;;
63801;SDS011;49949;43.060;25.624;2022-07-29T15:18:10;3.58;;;2.58;;
63801;SDS011;49949;43.060;25.624;2022-07-29T15:20:36;4.82;;;2.17;;
63801;SDS011;49949;43.060;25.624;2022-07-29T15:23:02;4.68;;;2.42;;
63801;SDS011;49949;43.060;25.624;2022-07-29T15:25:28;4.40;;;2.08;;
63801;SDS011;49949;43.060;25.624;2022-07-29T15:27:53;3.38;;;2.47;;
63801;SDS011;49949;43.060;25.624;2022-07-29T15:30:20;3.05;;;2.70;;
63801;SDS011;49949;43.060;25.624;2022-07-29T15:32:45;4.57;;;3.50;;
63801;SDS011;49949;43.060;25.624;2022-07-29T15:35:11;2.67;;;2.35;;
63801;SDS011;49949;43.060;25.624;2022-07-29T15:37:37;9.07;;;3.20;;
63801;SDS011;49949;43.060;25.624;2022-07-29T15:40:06;7.25;;;3.10;;
63801;SDS011;49949;43.060;25.624;2022-07-29T15:42:34;5.80;;;2.45;;
63801;SDS011;49949;43.060;25.624;2022-07-29T15:45:00;4.03;;;2.47;;
63801;SDS011;49949;43.060;25.624;2022-07-29T15:47:28;3.17;;;2.72;;
63801;SDS011;49949;43.060;25.624;2022-07-29T15:49:54;4.70;;;2.22;;
63801;SDS011;49949;43.060;25.624;2022-07-29T15:52:20;2.25;;;2.15;;